createdAt,value
2018-01-25T00:02:15.918Z,8.27
2018-01-25T00:04:44.269Z,7.50
2018-01-25T00:07:12.988Z,9.20
2018-01-25T00:09:41.585Z,7.33
2018-01-25T00:12:10.153Z,8.23
2018-01-25T00:14:38.717Z,8.37
2018-01-25T00:17:07.037Z,10.83
2018-01-25T00:19:35.332Z,7.80
2018-01-25T00:22:03.692Z,7.03
2018-01-25T00:24:32.112Z,7.70
2018-01-25T00:27:00.436Z,6.87
2018-01-25T00:29:28.689Z,8.00
2018-01-25T00:31:57.000Z,7.67
2018-01-25T00:34:25.264Z,7.80
2018-01-25T00:36:53.676Z,6.50
2018-01-25T00:39:21.971Z,7.67
2018-01-25T00:41:50.348Z,11.57
2018-01-25T00:44:18.634Z,6.40
2018-01-25T00:46:47.025Z,6.60
2018-01-25T00:49:15.581Z,6.53
2018-01-25T00:51:43.973Z,5.83
2018-01-25T00:54:12.228Z,6.00
2018-01-25T00:56:40.533Z,13.27
2018-01-25T00:59:08.772Z,6.70
2018-01-25T01:01:37.093Z,7.60
2018-01-25T01:04:05.541Z,13.83
2018-01-25T01:06:33.873Z,5.10
2018-01-25T01:09:02.345Z,9.90
2018-01-25T01:11:30.685Z,8.40
2018-01-25T01:13:58.965Z,7.23
2018-01-25T01:16:27.342Z,6.20
2018-01-25T01:18:55.609Z,5.10
2018-01-25T01:21:23.944Z,5.40
2018-01-25T01:23:52.229Z,4.70
2018-01-25T01:26:20.544Z,5.47
2018-01-25T01:28:48.840Z,6.20
2018-01-25T01:31:17.161Z,4.87
2018-01-25T01:33:45.424Z,5.47
2018-01-25T01:36:13.894Z,6.10
2018-01-25T01:38:42.384Z,11.93
2018-01-25T01:41:10.708Z,5.93
2018-01-25T01:43:39.092Z,9.67
2018-01-25T01:46:07.416Z,9.93
2018-01-25T01:48:35.674Z,5.07
2018-01-25T01:51:04.053Z,6.50
2018-01-25T01:53:32.430Z,4.90
2018-01-25T01:56:00.891Z,6.40
2018-01-25T01:58:29.360Z,4.40
2018-01-25T02:00:57.675Z,5.13
2018-01-25T02:03:25.928Z,4.80
2018-01-25T02:05:54.240Z,7.10
2018-01-25T02:08:22.511Z,5.83
2018-01-25T02:10:50.878Z,9.10
2018-01-25T02:13:19.157Z,4.40
2018-01-25T02:15:47.940Z,4.57
2018-01-25T02:18:16.212Z,5.27
2018-01-25T02:20:44.525Z,6.47
2018-01-25T02:23:12.820Z,3.93
2018-01-25T02:25:41.279Z,4.13
2018-01-25T02:28:09.567Z,4.97
2018-01-25T02:30:38.017Z,5.80
2018-01-25T02:33:06.298Z,3.80
2018-01-25T02:35:34.621Z,4.17
2018-01-25T02:38:02.925Z,6.50
2018-01-25T02:40:31.260Z,3.30
2018-01-25T02:42:59.544Z,3.90
2018-01-25T02:45:27.886Z,7.40
2018-01-25T02:47:56.152Z,3.93
2018-01-25T02:50:24.485Z,3.70
2018-01-25T02:52:52.880Z,3.33
2018-01-25T02:55:21.212Z,4.20
2018-01-25T02:57:49.506Z,4.73
2018-01-25T03:00:17.848Z,3.83
2018-01-25T03:02:46.119Z,3.10
2018-01-25T03:05:14.457Z,5.60
2018-01-25T03:07:42.707Z,3.30
2018-01-25T03:10:11.074Z,3.40
2018-01-25T03:12:39.372Z,3.63
2018-01-25T03:15:07.704Z,3.20
2018-01-25T03:17:35.980Z,4.50
2018-01-25T03:20:04.370Z,4.80
2018-01-25T03:22:32.646Z,5.80
2018-01-25T03:25:01.120Z,6.80
2018-01-25T03:27:29.492Z,4.53
2018-01-25T03:29:57.818Z,6.47
2018-01-25T03:32:26.294Z,5.53
2018-01-25T03:34:54.613Z,2.83
2018-01-25T03:37:23.008Z,3.57
2018-01-25T03:39:51.281Z,3.70
2018-01-25T03:42:19.615Z,2.47
2018-01-25T03:44:47.949Z,5.70
2018-01-25T03:47:16.318Z,3.13
2018-01-25T03:49:44.625Z,4.40
2018-01-25T03:52:12.944Z,3.80
2018-01-25T03:54:41.275Z,5.13
2018-01-25T03:57:09.590Z,2.93
2018-01-25T03:59:37.969Z,5.20
2018-01-25T04:02:06.252Z,4.60
2018-01-25T04:04:34.532Z,4.73
2018-01-25T04:07:02.837Z,3.67
2018-01-25T04:09:31.101Z,3.60
2018-01-25T04:11:59.457Z,4.10
2018-01-25T04:14:27.768Z,3.77
2018-01-25T04:16:56.134Z,4.63
2018-01-25T04:19:24.469Z,9.13
2018-01-25T04:21:52.861Z,4.23
2018-01-25T04:24:22.013Z,5.40
2018-01-25T04:26:50.321Z,11.70
2018-01-25T04:29:18.588Z,3.80
2018-01-25T04:31:47.285Z,5.20
2018-01-25T04:34:15.650Z,4.70
2018-01-25T04:36:43.957Z,4.37
2018-01-25T04:39:12.196Z,4.10
2018-01-25T04:41:40.493Z,5.87
2018-01-25T04:44:08.782Z,3.90
2018-01-25T04:46:37.622Z,3.43
2018-01-25T04:49:05.970Z,5.33
2018-01-25T04:51:34.264Z,3.37
2018-01-25T04:54:02.552Z,3.30
2018-01-25T04:56:30.877Z,3.10
2018-01-25T04:58:59.228Z,4.40
2018-01-25T05:04:23.171Z,3.13
2018-01-25T05:06:51.515Z,3.30
2018-01-25T05:09:20.003Z,3.13
2018-01-25T05:11:48.451Z,3.90
2018-01-25T05:14:19.843Z,6.77
2018-01-25T05:16:48.379Z,5.63
2018-01-25T05:19:16.794Z,5.43
2018-01-25T05:21:45.301Z,2.93
2018-01-25T05:24:13.802Z,4.27
2018-01-25T05:26:42.179Z,3.13
2018-01-25T05:29:10.475Z,4.33
2018-01-25T05:31:38.825Z,3.93
2018-01-25T05:34:07.127Z,4.77
2018-01-25T05:36:35.457Z,5.97
2018-01-25T05:39:03.845Z,4.17
2018-01-25T05:41:32.187Z,3.03
2018-01-25T05:44:00.510Z,4.00
2018-01-25T05:46:28.987Z,5.13
2018-01-25T05:48:57.276Z,3.10
2018-01-25T05:51:25.646Z,3.17
2018-01-25T05:53:53.946Z,3.23
2018-01-25T05:56:22.388Z,5.83
2018-01-25T05:58:50.753Z,4.33
2018-01-25T06:01:19.344Z,3.40
2018-01-25T06:03:47.896Z,5.27
2018-01-25T06:06:20.457Z,8.73
2018-01-25T06:08:49.160Z,4.40
2018-01-25T06:11:19.845Z,3.20
2018-01-25T06:13:48.559Z,13.37
2018-01-25T06:16:16.932Z,4.80
2018-01-25T06:18:45.242Z,4.50
2018-01-25T06:21:13.671Z,2.97
2018-01-25T06:23:43.022Z,6.17
2018-01-25T06:26:11.451Z,11.33
2018-01-25T06:28:39.935Z,5.90
2018-01-25T06:31:08.226Z,6.77
2018-01-25T06:33:36.646Z,6.20
2018-01-25T06:36:05.493Z,7.43
2018-01-25T06:38:33.917Z,10.03
2018-01-25T06:41:02.302Z,4.73
2018-01-25T06:43:30.704Z,5.07
2018-01-25T06:45:59.087Z,6.67
2018-01-25T06:48:27.430Z,5.47
2018-01-25T06:50:55.854Z,6.27
2018-01-25T06:53:25.436Z,7.33
2018-01-25T06:55:53.851Z,9.37
2018-01-25T06:58:22.212Z,7.17
2018-01-25T07:00:50.654Z,6.50
2018-01-25T07:03:18.987Z,5.40
2018-01-25T07:05:48.336Z,4.73
2018-01-25T07:08:17.967Z,2.97
2018-01-25T07:10:46.551Z,6.13
2018-01-25T07:13:15.034Z,4.00
2018-01-25T07:15:43.394Z,5.97
2018-01-25T07:18:12.193Z,4.60
2018-01-25T07:20:40.604Z,4.50
2018-01-25T07:23:09.000Z,2.87
2018-01-25T07:25:37.342Z,6.80
2018-01-25T07:28:07.412Z,8.20
2018-01-25T07:30:36.297Z,4.13
2018-01-25T07:33:04.620Z,4.30
2018-01-25T07:35:33.120Z,5.83
2018-01-25T07:38:01.452Z,2.60
2018-01-25T07:40:29.959Z,4.10
2018-01-25T07:42:58.319Z,3.40
2018-01-25T07:45:26.707Z,5.60
2018-01-25T07:47:55.110Z,4.97
2018-01-25T07:50:23.496Z,5.40
2018-01-25T07:52:51.920Z,4.60
2018-01-25T07:55:20.420Z,4.13
2018-01-25T07:57:53.042Z,8.03
2018-01-25T08:00:22.244Z,6.73
2018-01-25T08:02:51.464Z,3.33
2018-01-25T08:05:19.978Z,4.50
2018-01-25T08:07:48.378Z,5.83
2018-01-25T08:10:16.783Z,9.17
2018-01-25T08:12:45.150Z,6.30
2018-01-25T08:15:13.587Z,6.83
2018-01-25T08:17:41.971Z,7.40
2018-01-25T08:20:11.947Z,5.90
2018-01-25T08:22:41.167Z,5.13
2018-01-25T08:25:09.763Z,14.43
2018-01-25T08:27:38.177Z,4.10
2018-01-25T08:30:06.812Z,4.57
2018-01-25T08:32:35.291Z,3.07
2018-01-25T08:35:04.009Z,2.60
2018-01-25T08:37:45.346Z,3.07
2018-01-25T08:40:13.854Z,3.13
2018-01-25T08:42:43.407Z,5.37
2018-01-25T08:45:11.804Z,2.50
2018-01-25T08:47:40.137Z,3.07
2018-01-25T08:50:08.543Z,3.07
2018-01-25T08:52:36.924Z,5.30
2018-01-25T08:55:05.410Z,2.57
2018-01-25T08:57:34.077Z,3.17
2018-01-25T09:00:02.681Z,3.50
2018-01-25T09:02:31.159Z,4.43
2018-01-25T09:04:59.592Z,2.63
2018-01-25T09:07:28.067Z,4.27
2018-01-25T09:09:56.592Z,3.67
2018-01-25T09:12:25.324Z,4.37
2018-01-25T09:14:53.638Z,2.37
2018-01-25T09:17:21.977Z,2.30
2018-01-25T09:19:50.349Z,2.03
2018-01-25T09:22:19.544Z,1.87
2018-01-25T09:24:47.926Z,2.53
2018-01-25T09:27:17.375Z,1.90
2018-01-25T09:29:45.879Z,1.70
2018-01-25T09:32:19.107Z,3.03
2018-01-25T09:34:47.457Z,2.10
2018-01-25T09:37:15.866Z,1.50
2018-01-25T09:39:44.988Z,2.47
2018-01-25T09:42:13.724Z,6.37
2018-01-25T09:44:42.068Z,1.77
2018-01-25T09:47:10.522Z,1.70
2018-01-25T09:49:38.982Z,1.73
2018-01-25T09:52:07.326Z,2.77
2018-01-25T09:54:35.630Z,1.90
2018-01-25T09:57:03.946Z,2.30
2018-01-25T09:59:32.546Z,1.90
2018-01-25T10:02:01.078Z,1.70
2018-01-25T10:04:29.498Z,1.57
2018-01-25T10:06:57.812Z,2.20
2018-01-25T10:09:26.240Z,4.77
2018-01-25T10:11:54.558Z,3.20
2018-01-25T10:14:23.192Z,2.40
2018-01-25T10:16:51.329Z,11.30
2018-01-25T10:21:54.665Z,5.30
2018-01-25T10:24:22.859Z,1.53
2018-01-25T10:26:51.354Z,2.20
2018-01-25T10:29:19.795Z,2.13
2018-01-25T10:31:48.343Z,16.87
2018-01-25T10:34:16.929Z,1.53
2018-01-25T10:36:45.304Z,2.00
2018-01-25T10:39:13.810Z,2.10
2018-01-25T10:41:42.365Z,1.60
2018-01-25T10:44:10.684Z,2.60
2018-01-25T10:46:38.990Z,2.30
2018-01-25T10:49:07.315Z,3.60
2018-01-25T10:51:35.653Z,3.70
2018-01-25T10:54:04.004Z,4.37
2018-01-25T10:56:32.446Z,4.83
2018-01-25T10:59:00.753Z,8.57
2018-01-25T11:01:33.418Z,4.80
2018-01-25T11:04:01.743Z,5.53
2018-01-25T11:06:30.089Z,3.50
2018-01-25T11:09:01.278Z,8.03
2018-01-25T11:11:29.679Z,4.40
2018-01-25T11:14:04.873Z,5.20
2018-01-25T11:16:33.190Z,3.50
2018-01-25T11:19:01.508Z,4.37
2018-01-25T11:21:29.895Z,8.63
2018-01-25T11:23:58.266Z,4.83
2018-01-25T11:26:26.674Z,5.30
2018-01-25T11:28:55.051Z,5.17
2018-01-25T11:31:24.266Z,5.60
2018-01-25T11:33:52.600Z,6.37
2018-01-25T11:36:20.934Z,14.40
2018-01-25T11:38:49.251Z,7.27
2018-01-25T11:41:17.636Z,10.90
2018-01-25T11:43:46.002Z,13.80
2018-01-25T11:46:14.732Z,10.50
2018-01-25T11:48:43.054Z,8.90
2018-01-25T11:51:11.368Z,7.23
2018-01-25T11:53:39.647Z,8.50
2018-01-25T11:56:07.975Z,8.43
2018-01-25T11:58:36.363Z,7.70
2018-01-25T12:01:04.717Z,6.40
2018-01-25T12:03:33.007Z,7.30
2018-01-25T12:06:01.728Z,6.43
2018-01-25T12:08:30.073Z,5.93
2018-01-25T12:10:58.445Z,6.97
2018-01-25T12:13:27.656Z,6.23
2018-01-25T12:15:56.302Z,7.90
2018-01-25T12:18:24.662Z,3.60
2018-01-25T12:20:53.073Z,3.57
2018-01-25T12:23:21.434Z,4.43
2018-01-25T12:25:49.771Z,4.80
2018-01-25T12:28:18.314Z,3.13
2018-01-25T12:30:47.644Z,2.47
2018-01-25T12:33:16.198Z,5.70
2018-01-25T12:35:44.564Z,7.90
2018-01-25T12:38:12.908Z,4.17
2018-01-25T12:40:41.228Z,2.90
2018-01-25T12:43:09.534Z,2.10
2018-01-25T12:45:37.859Z,4.33
2018-01-25T12:48:06.156Z,4.40
2018-01-25T12:50:34.543Z,3.43
2018-01-25T12:53:02.956Z,3.07
2018-01-25T12:55:31.478Z,2.53
2018-01-25T12:57:59.941Z,2.33
2018-01-25T13:00:28.276Z,2.00
2018-01-25T13:02:56.888Z,6.50
2018-01-25T13:05:25.259Z,12.53
2018-01-25T13:07:53.595Z,3.70
2018-01-25T13:10:26.921Z,2.37
2018-01-25T13:12:55.782Z,4.40
2018-01-25T13:15:24.226Z,4.30
2018-01-25T13:17:52.512Z,2.10
2018-01-25T13:20:20.813Z,4.13
2018-01-25T13:22:49.119Z,2.60
2018-01-25T13:25:17.531Z,2.37
2018-01-25T13:27:46.254Z,3.77
2018-01-25T13:30:14.599Z,1.67
2018-01-25T13:32:42.911Z,2.23
2018-01-25T13:35:11.251Z,6.73
2018-01-25T13:37:39.542Z,3.00
2018-01-25T13:40:07.838Z,2.43
2018-01-25T13:42:36.217Z,6.67
2018-01-25T13:45:04.590Z,5.87
2018-01-25T13:47:33.551Z,1.63
2018-01-25T13:50:02.083Z,2.10
2018-01-25T13:52:34.624Z,2.23
2018-01-25T13:55:02.922Z,6.30
2018-01-25T13:57:31.259Z,1.73
2018-01-25T13:59:59.736Z,3.20
2018-01-25T14:02:28.231Z,3.00
2018-01-25T14:04:56.675Z,2.60
2018-01-25T14:07:24.986Z,4.07
2018-01-25T14:09:53.284Z,4.33
2018-01-25T14:12:21.608Z,3.40
2018-01-25T14:14:49.899Z,3.17
2018-01-25T14:17:18.202Z,3.17
2018-01-25T14:19:46.538Z,2.30
2018-01-25T14:22:14.839Z,2.47
2018-01-25T14:24:43.120Z,3.30
2018-01-25T14:27:11.611Z,2.07
2018-01-25T14:29:40.123Z,3.43
2018-01-25T14:32:08.603Z,4.10
2018-01-25T14:34:36.868Z,1.90
2018-01-25T14:37:05.194Z,3.37
2018-01-25T14:39:33.571Z,3.50
2018-01-25T14:42:01.907Z,4.90
2018-01-25T14:44:30.657Z,3.47
2018-01-25T14:46:59.062Z,3.40
2018-01-25T14:49:27.374Z,4.83
2018-01-25T14:51:55.955Z,3.87
2018-01-25T14:54:24.302Z,4.90
2018-01-25T14:56:52.767Z,3.30
2018-01-25T14:59:21.854Z,3.30
2018-01-25T15:01:50.210Z,11.00
2018-01-25T15:04:18.539Z,3.90
2018-01-25T15:06:46.865Z,4.50
2018-01-25T15:09:15.338Z,6.47
2018-01-25T15:11:43.849Z,6.10
2018-01-25T15:14:12.132Z,3.13
2018-01-25T15:16:40.639Z,5.27
2018-01-25T15:19:08.915Z,6.80
2018-01-25T15:21:37.228Z,6.60
2018-01-25T15:24:05.516Z,3.43
2018-01-25T15:26:34.725Z,3.37
2018-01-25T15:29:03.023Z,4.07
2018-01-25T15:31:31.352Z,4.03
2018-01-25T15:33:59.695Z,3.53
2018-01-25T15:36:28.031Z,5.47
2018-01-25T15:38:56.298Z,5.37
2018-01-25T15:41:24.807Z,6.47
2018-01-25T15:43:53.110Z,4.63
2018-01-25T15:46:21.403Z,4.70
2018-01-25T15:48:49.688Z,7.03
2018-01-25T15:51:18.016Z,7.53
2018-01-25T15:53:46.302Z,6.50
2018-01-25T15:56:14.621Z,5.80
2018-01-25T15:58:42.999Z,5.83
2018-01-25T16:01:11.386Z,3.70
2018-01-25T16:03:39.894Z,4.67
2018-01-25T16:06:08.310Z,6.33
2018-01-25T16:08:36.602Z,5.40
2018-01-25T16:11:04.979Z,5.20
2018-01-25T16:13:33.302Z,6.10
2018-01-25T16:16:01.693Z,8.80
2018-01-25T16:18:29.967Z,9.90
2018-01-25T16:20:58.560Z,8.00
2018-01-25T16:23:27.126Z,7.00
2018-01-25T16:25:55.537Z,6.97
2018-01-25T16:28:29.492Z,7.50
2018-01-25T16:30:57.834Z,6.50
2018-01-25T16:33:26.246Z,9.07
2018-01-25T16:35:54.626Z,6.10
2018-01-25T16:38:23.012Z,5.27
2018-01-25T16:40:51.555Z,9.67
2018-01-25T16:43:19.912Z,7.23
2018-01-25T16:45:48.304Z,5.33
2018-01-25T16:48:16.579Z,9.23
2018-01-25T16:50:44.963Z,7.20
2018-01-25T16:53:13.219Z,7.33
2018-01-25T16:55:41.682Z,11.00
2018-01-25T16:58:10.192Z,6.23
2018-01-25T17:00:38.559Z,7.27
2018-01-25T17:03:06.843Z,8.97
2018-01-25T17:05:35.419Z,9.67
2018-01-25T17:08:05.039Z,11.67
2018-01-25T17:10:35.659Z,10.53
2018-01-25T17:13:05.140Z,8.67
2018-01-25T17:15:33.496Z,8.00
2018-01-25T17:18:01.815Z,6.70
2018-01-25T17:20:30.195Z,7.30
2018-01-25T17:22:58.479Z,8.00
2018-01-25T17:25:26.776Z,10.93
2018-01-25T17:27:55.103Z,11.63
2018-01-25T17:30:23.513Z,9.23
2018-01-25T17:32:51.930Z,9.17
2018-01-25T17:35:20.239Z,9.13
2018-01-25T17:37:48.519Z,9.87
2018-01-25T17:40:16.839Z,14.67
2018-01-25T17:42:45.158Z,8.67
2018-01-25T17:45:13.475Z,9.90
2018-01-25T17:47:41.829Z,9.03
2018-01-25T17:50:10.381Z,14.00
2018-01-25T17:52:38.693Z,15.23
2018-01-25T17:55:07.079Z,15.40
2018-01-25T17:57:35.510Z,16.20
2018-01-25T18:00:03.905Z,11.83
2018-01-25T18:02:32.442Z,7.33
2018-01-25T18:05:00.768Z,10.30
2018-01-25T18:07:29.262Z,10.13
2018-01-25T18:09:57.746Z,11.40
2018-01-25T18:12:26.076Z,10.93
2018-01-25T18:14:54.491Z,12.33
2018-01-25T18:17:22.835Z,11.63
2018-01-25T18:19:51.571Z,13.37
2018-01-25T18:22:19.966Z,13.13
2018-01-25T18:24:48.262Z,10.63
2018-01-25T18:27:16.619Z,11.07
2018-01-25T18:29:44.898Z,12.33
2018-01-25T18:32:13.235Z,10.20
2018-01-25T18:34:41.585Z,16.03
2018-01-25T18:37:09.954Z,11.10
2018-01-25T18:39:38.232Z,10.83
2018-01-25T18:42:06.786Z,10.93
2018-01-25T18:44:35.191Z,14.87
2018-01-25T18:47:03.551Z,11.10
2018-01-25T18:49:31.827Z,10.57
2018-01-25T18:52:00.185Z,13.27
2018-01-25T18:54:28.514Z,14.27
2018-01-25T18:56:56.910Z,14.73
2018-01-25T18:59:25.473Z,11.77
2018-01-25T19:01:53.964Z,13.07
2018-01-25T19:04:22.300Z,13.53
2018-01-25T19:06:50.755Z,10.93
2018-01-25T19:09:19.078Z,10.90
2018-01-25T19:11:47.415Z,14.33
2018-01-25T19:14:15.707Z,14.07
2018-01-25T19:16:44.087Z,20.10
2018-01-25T19:19:12.395Z,14.47
2018-01-25T19:21:40.931Z,15.40
2018-01-25T19:24:09.199Z,14.33
2018-01-25T19:26:37.528Z,12.73
2018-01-25T19:29:05.930Z,11.77
2018-01-25T19:31:34.298Z,19.93
2018-01-25T19:34:02.697Z,14.57
2018-01-25T19:36:31.056Z,15.03
2018-01-25T19:38:59.468Z,13.80
2018-01-25T19:41:27.799Z,12.27
2018-01-25T19:43:56.090Z,14.27
2018-01-25T19:46:24.497Z,18.10
2018-01-25T19:48:52.788Z,14.90
2018-01-25T19:51:21.295Z,18.50
2018-01-25T19:53:49.732Z,14.67
2018-01-25T19:56:18.226Z,15.37
2018-01-25T19:58:46.694Z,18.03
2018-01-25T20:01:15.973Z,24.17
2018-01-25T20:03:44.396Z,15.63
2018-01-25T20:06:12.752Z,18.47
2018-01-25T20:08:41.032Z,16.50
2018-01-25T20:11:10.727Z,18.93
2018-01-25T20:13:40.120Z,17.70
2018-01-25T20:16:09.028Z,16.27
2018-01-25T20:18:39.040Z,19.30
2018-01-25T20:21:08.075Z,19.60
2018-01-25T20:23:39.989Z,15.27
2018-01-25T20:26:09.183Z,19.73
2018-01-25T20:28:37.711Z,20.50
2018-01-25T20:31:06.971Z,19.23
2018-01-25T20:33:36.459Z,18.87
2018-01-25T20:36:04.816Z,17.10
2018-01-25T20:38:33.227Z,20.27
2018-01-25T20:41:01.547Z,25.73
2018-01-25T20:43:29.971Z,25.50
2018-01-25T20:45:58.469Z,24.07
2018-01-25T20:48:26.899Z,23.03
2018-01-25T20:50:55.260Z,21.60
2018-01-25T20:53:23.673Z,23.60
2018-01-25T20:55:52.787Z,28.30
2018-01-25T20:58:22.397Z,24.47
2018-01-25T21:00:54.963Z,25.10
2018-01-25T21:03:23.830Z,27.10
2018-01-25T21:05:52.194Z,28.10
2018-01-25T21:08:20.484Z,23.60
2018-01-25T21:10:48.784Z,32.43
2018-01-25T21:13:18.017Z,30.10
2018-01-25T21:15:46.519Z,27.20
2018-01-25T21:18:14.790Z,27.00
2018-01-25T21:20:43.122Z,31.70
2018-01-25T21:23:11.398Z,34.73
2018-01-25T21:25:39.842Z,29.73
2018-01-25T21:28:08.369Z,30.10
2018-01-25T21:30:36.728Z,31.80
2018-01-25T21:33:05.011Z,32.20
2018-01-25T21:35:34.543Z,38.70
2018-01-25T21:38:02.864Z,30.63
2018-01-25T21:40:31.243Z,30.57
2018-01-25T21:43:06.414Z,36.03
2018-01-25T21:45:34.769Z,33.10
2018-01-25T21:48:03.158Z,29.53
2018-01-25T21:50:31.723Z,32.97
2018-01-25T21:53:00.063Z,35.40
2018-01-25T21:55:28.454Z,33.07
2018-01-25T21:57:56.814Z,32.00
2018-01-25T22:00:25.240Z,31.17
2018-01-25T22:02:53.575Z,35.20
2018-01-25T22:05:21.912Z,34.03
2018-01-25T22:07:50.243Z,32.87
2018-01-25T22:10:18.618Z,31.90
2018-01-25T22:12:46.895Z,29.07
2018-01-25T22:15:15.238Z,33.33
2018-01-25T22:17:43.630Z,36.53
2018-01-25T22:20:12.087Z,35.63
2018-01-25T22:22:40.367Z,32.20
2018-01-25T22:25:08.702Z,26.90
2018-01-25T22:27:37.020Z,25.37
2018-01-25T22:30:05.444Z,27.50
2018-01-25T22:32:33.896Z,32.27
2018-01-25T22:35:02.203Z,27.47
2018-01-25T22:37:30.518Z,26.87
2018-01-25T22:39:58.846Z,27.77
2018-01-25T22:42:27.239Z,27.67
2018-01-25T22:44:55.903Z,28.63
2018-01-25T22:47:24.210Z,26.33
2018-01-25T22:49:52.642Z,26.90
2018-01-25T22:52:20.955Z,26.10
2018-01-25T22:54:49.214Z,34.17
2018-01-25T22:57:17.535Z,26.53
2018-01-25T22:59:45.950Z,30.17
2018-01-25T23:02:14.295Z,26.80
2018-01-25T23:04:42.581Z,29.33
2018-01-25T23:07:11.062Z,27.70
2018-01-25T23:09:39.458Z,30.30
2018-01-25T23:12:07.763Z,31.10
2018-01-25T23:14:36.050Z,30.27
2018-01-25T23:17:04.534Z,33.30
2018-01-25T23:19:32.862Z,31.67
2018-01-25T23:22:01.295Z,30.80
2018-01-25T23:24:29.651Z,37.03
2018-01-25T23:26:58.063Z,30.07
2018-01-25T23:29:26.388Z,34.17
2018-01-25T23:31:54.708Z,34.90
2018-01-25T23:34:23.010Z,30.10
2018-01-25T23:36:51.327Z,28.00
2018-01-25T23:39:19.621Z,28.50
2018-01-25T23:41:48.112Z,30.90
2018-01-25T23:44:16.378Z,29.37
2018-01-25T23:46:44.868Z,31.90
2018-01-25T23:49:13.178Z,28.50
2018-01-25T23:51:41.548Z,32.87
2018-01-25T23:54:09.820Z,27.20
2018-01-25T23:56:38.416Z,29.60
2018-01-25T23:59:07.034Z,30.23
